UAL352 MROC-MMUN
Flight info
| Callsign | UAL352 |
|---|---|
| Flight time | 1h 48m |
| Altitude | 36000 |
| Route | NANJO3U ULAPO DCT KELVO DCT SIGMA SIGMA2G |
| Aircraft | B738/M-SDE2E3FGHIRWXY/LB1 |
Departure
| Time | 2026-04-29 02:57 |
|---|---|
| Airport | Juan Santamaría International Airport (MROC) |
Arrival
| Time | 2026-04-29 04:46 |
|---|---|
| Airport | Cancún International Airport (MMUN) |
| Time | Latitude | Longitude | Altitude | Speed | Heading |
|---|---|---|---|---|---|
| 2026-04-29 02:33 | 9.99779 | -84.20274 | 2984 ft | 0 kts | 339° |
| 2026-04-29 02:48 | 9.99773 | -84.20272 | 3033 ft | 2 kts | 339° |
| 2026-04-29 02:48 | 9.99757 | -84.20266 | 3034 ft | 2 kts | 339° |
| 2026-04-29 02:48 | 9.99742 | -84.20261 | 3032 ft | 2 kts | 339° |
| 2026-04-29 02:49 | 9.99727 | -84.20254 | 3033 ft | 2 kts | 327° |
| 2026-04-29 02:49 | 9.99715 | -84.20243 | 3033 ft | 2 kts | 277° |
| 2026-04-29 02:49 | 9.99715 | -84.20242 | 3033 ft | 0 kts | 270° |
| 2026-04-29 02:51 | 9.99715 | -84.20243 | 3033 ft | 1 kts | 271° |
| 2026-04-29 02:52 | 9.99710 | -84.20282 | 3035 ft | 9 kts | 255° |
| 2026-04-29 02:52 | 9.99688 | -84.20348 | 3034 ft | 11 kts | 249° |
| 2026-04-29 02:52 | 9.99659 | -84.20423 | 3035 ft | 13 kts | 248° |
| 2026-04-29 02:53 | 9.99618 | -84.20532 | 3034 ft | 20 kts | 250° |
| 2026-04-29 02:53 | 9.99563 | -84.20681 | 3034 ft | 24 kts | 250° |
| 2026-04-29 02:53 | 9.99504 | -84.20835 | 3034 ft | 23 kts | 248° |
| 2026-04-29 02:53 | 9.99448 | -84.20984 | 3024 ft | 23 kts | 250° |
| 2026-04-29 02:54 | 9.99386 | -84.21152 | 3005 ft | 28 kts | 249° |
| 2026-04-29 02:54 | 9.99319 | -84.21329 | 2995 ft | 26 kts | 249° |
| 2026-04-29 02:54 | 9.99258 | -84.21495 | 2982 ft | 24 kts | 249° |
| 2026-04-29 02:54 | 9.99199 | -84.21650 | 2971 ft | 23 kts | 248° |
| 2026-04-29 02:55 | 9.99144 | -84.21799 | 2957 ft | 22 kts | 250° |
| 2026-04-29 02:55 | 9.99094 | -84.21944 | 2948 ft | 22 kts | 264° |
| 2026-04-29 02:55 | 9.99094 | -84.22092 | 2949 ft | 21 kts | 252° |
| 2026-04-29 02:55 | 9.99028 | -84.22208 | 2942 ft | 6 kts | 194° |
| 2026-04-29 02:56 | 9.98990 | -84.22200 | 2948 ft | 6 kts | 157° |
| 2026-04-29 02:56 | 9.98954 | -84.22184 | 2948 ft | 6 kts | 155° |
| 2026-04-29 02:56 | 9.98923 | -84.22163 | 2939 ft | 6 kts | 121° |
| 2026-04-29 02:56 | 9.98922 | -84.22142 | 2946 ft | 0 kts | 73° |
| 2026-04-29 02:57 | 9.98958 | -84.22039 | 2951 ft | 51 kts | 69° |
| 2026-04-29 02:57 | 9.99179 | -84.21452 | 2986 ft | 126 kts | 68° |
| 2026-04-29 02:57 | 9.99570 | -84.20421 | 3083 ft | 183 kts | 69° |
| 2026-04-29 02:57 | 10.00026 | -84.19194 | 3928 ft | 185 kts | 70° |
| 2026-04-29 02:58 | 10.00750 | -84.18128 | 4954 ft | 188 kts | 37° |
| 2026-04-29 02:58 | 10.01978 | -84.17760 | 5723 ft | 194 kts | 352° |
| 2026-04-29 02:58 | 10.03219 | -84.18409 | 5989 ft | 217 kts | 309° |
| 2026-04-29 02:58 | 10.04116 | -84.19731 | 6206 ft | 239 kts | 308° |
| 2026-04-29 02:59 | 10.05253 | -84.21061 | 6389 ft | 261 kts | 304° |
| 2026-04-29 02:59 | 10.06003 | -84.22783 | 6690 ft | 273 kts | 289° |
| 2026-04-29 02:59 | 10.06645 | -84.24629 | 7215 ft | 280 kts | 289° |
| 2026-04-29 02:59 | 10.07311 | -84.26493 | 7881 ft | 283 kts | 289° |
| 2026-04-29 03:00 | 10.07999 | -84.28384 | 8632 ft | 290 kts | 290° |
| 2026-04-29 03:00 | 10.08714 | -84.30331 | 9357 ft | 297 kts | 290° |
| 2026-04-29 03:00 | 10.09445 | -84.32312 | 10194 ft | 301 kts | 290° |
| 2026-04-29 03:00 | 10.10196 | -84.34307 | 11031 ft | 304 kts | 294° |
| 2026-04-29 03:01 | 10.11409 | -84.36067 | 11791 ft | 310 kts | 317° |
| 2026-04-29 03:01 | 10.13082 | -84.37464 | 12604 ft | 313 kts | 321° |
| 2026-04-29 03:01 | 10.14815 | -84.38824 | 13362 ft | 317 kts | 322° |
| 2026-04-29 03:01 | 10.16558 | -84.40179 | 14107 ft | 321 kts | 322° |
| 2026-04-29 03:02 | 10.18335 | -84.41567 | 14847 ft | 324 kts | 322° |
| 2026-04-29 03:02 | 10.20154 | -84.42998 | 15358 ft | 336 kts | 321° |
| 2026-04-29 03:02 | 10.22024 | -84.44477 | 15936 ft | 344 kts | 321° |
| 2026-04-29 03:02 | 10.23923 | -84.45984 | 16649 ft | 347 kts | 321° |
| 2026-04-29 03:03 | 10.25826 | -84.47497 | 17359 ft | 350 kts | 321° |
| 2026-04-29 03:03 | 10.27753 | -84.49031 | 18016 ft | 353 kts | 321° |
| 2026-04-29 03:03 | 10.29695 | -84.50578 | 18662 ft | 357 kts | 321° |
| 2026-04-29 03:03 | 10.31665 | -84.52147 | 19292 ft | 361 kts | 321° |
| 2026-04-29 03:04 | 10.33647 | -84.53726 | 19914 ft | 364 kts | 321° |
| 2026-04-29 03:04 | 10.35652 | -84.55322 | 20517 ft | 368 kts | 321° |
| 2026-04-29 03:04 | 10.37648 | -84.56911 | 21095 ft | 371 kts | 321° |
| 2026-04-29 03:04 | 10.39693 | -84.58539 | 21664 ft | 374 kts | 321° |
| 2026-04-29 03:05 | 10.41746 | -84.60175 | 22209 ft | 378 kts | 321° |
| 2026-04-29 03:05 | 10.43830 | -84.61834 | 22749 ft | 381 kts | 321° |
| 2026-04-29 03:05 | 10.45923 | -84.63503 | 23281 ft | 384 kts | 321° |
| 2026-04-29 03:05 | 10.48047 | -84.65195 | 23573 ft | 394 kts | 321° |
| 2026-04-29 03:06 | 10.50228 | -84.66935 | 23847 ft | 403 kts | 321° |
| 2026-04-29 03:06 | 10.52442 | -84.68700 | 24304 ft | 406 kts | 321° |
| 2026-04-29 03:06 | 10.54671 | -84.70478 | 24829 ft | 408 kts | 321° |
| 2026-04-29 03:06 | 10.56912 | -84.72266 | 25305 ft | 410 kts | 321° |
| 2026-04-29 03:07 | 10.59160 | -84.74060 | 25734 ft | 413 kts | 321° |
| 2026-04-29 03:07 | 10.61431 | -84.75873 | 26148 ft | 416 kts | 321° |
| 2026-04-29 03:07 | 10.63714 | -84.77695 | 26582 ft | 418 kts | 321° |
| 2026-04-29 03:07 | 10.66000 | -84.79520 | 27098 ft | 417 kts | 321° |
| 2026-04-29 03:08 | 10.68235 | -84.81326 | 27678 ft | 415 kts | 319° |
| 2026-04-29 03:08 | 10.70377 | -84.83280 | 28213 ft | 413 kts | 316° |
| 2026-04-29 03:08 | 10.72435 | -84.85312 | 28704 ft | 413 kts | 315° |
| 2026-04-29 03:08 | 10.74473 | -84.87373 | 29160 ft | 412 kts | 315° |
| 2026-04-29 03:09 | 10.76504 | -84.89424 | 29648 ft | 411 kts | 315° |
| 2026-04-29 03:09 | 10.78542 | -84.91464 | 30122 ft | 410 kts | 315° |
| 2026-04-29 03:09 | 10.80594 | -84.93500 | 30476 ft | 412 kts | 315° |
| 2026-04-29 03:09 | 10.82658 | -84.95536 | 30816 ft | 414 kts | 315° |
| 2026-04-29 03:10 | 10.84034 | -84.96889 | 31032 ft | 415 kts | 315° |
| 2026-04-29 03:10 | 10.86115 | -84.98933 | 31435 ft | 415 kts | 315° |
| 2026-04-29 03:10 | 10.88190 | -85.00969 | 31864 ft | 413 kts | 315° |
| 2026-04-29 03:10 | 10.90255 | -85.02997 | 32283 ft | 412 kts | 315° |
| 2026-04-29 03:11 | 10.92317 | -85.05023 | 32653 ft | 412 kts | 315° |
| 2026-04-29 03:11 | 10.94378 | -85.07048 | 33000 ft | 412 kts | 315° |
| 2026-04-29 03:11 | 10.96433 | -85.09070 | 33363 ft | 411 kts | 315° |
| 2026-04-29 03:11 | 10.98487 | -85.11089 | 33724 ft | 410 kts | 315° |
| 2026-04-29 03:12 | 11.00533 | -85.13102 | 34055 ft | 410 kts | 315° |
| 2026-04-29 03:12 | 11.02589 | -85.15123 | 34296 ft | 412 kts | 316° |
| 2026-04-29 03:12 | 11.04892 | -85.16850 | 34453 ft | 415 kts | 334° |
| 2026-04-29 03:12 | 11.07632 | -85.17770 | 34650 ft | 417 kts | 352° |
| 2026-04-29 03:13 | 11.10512 | -85.18107 | 34985 ft | 415 kts | 354° |
| 2026-04-29 03:13 | 11.13386 | -85.18372 | 35306 ft | 414 kts | 355° |
| 2026-04-29 03:13 | 11.16263 | -85.18618 | 35569 ft | 415 kts | 355° |
| 2026-04-29 03:13 | 11.19135 | -85.18866 | 35814 ft | 415 kts | 355° |
| 2026-04-29 03:14 | 11.22030 | -85.19124 | 35900 ft | 420 kts | 354° |
| 2026-04-29 03:14 | 11.27902 | -85.19677 | 36000 ft | 428 kts | 354° |
| 2026-04-29 03:15 | 11.33903 | -85.20264 | 36013 ft | 438 kts | 354° |
| 2026-04-29 03:15 | 11.40003 | -85.20868 | 36011 ft | 447 kts | 354° |
| 2026-04-29 03:16 | 11.46260 | -85.21488 | 36011 ft | 456 kts | 354° |
| 2026-04-29 03:16 | 11.52676 | -85.22124 | 36010 ft | 464 kts | 354° |
| 2026-04-29 03:17 | 11.59158 | -85.22766 | 36010 ft | 471 kts | 354° |
| 2026-04-29 03:17 | 11.65668 | -85.23411 | 36003 ft | 475 kts | 354° |
| 2026-04-29 03:18 | 11.72254 | -85.24064 | 36003 ft | 476 kts | 354° |
| 2026-04-29 03:18 | 11.78848 | -85.24718 | 35998 ft | 476 kts | 354° |
| 2026-04-29 03:19 | 11.85450 | -85.25374 | 36003 ft | 476 kts | 354° |
| 2026-04-29 03:19 | 11.92044 | -85.26028 | 36003 ft | 475 kts | 354° |
| 2026-04-29 03:20 | 11.98624 | -85.26682 | 35999 ft | 474 kts | 354° |
| 2026-04-29 03:20 | 12.05187 | -85.27335 | 35998 ft | 474 kts | 354° |
| 2026-04-29 03:21 | 12.11749 | -85.27987 | 35999 ft | 473 kts | 354° |
| 2026-04-29 03:21 | 12.18297 | -85.28639 | 36005 ft | 473 kts | 354° |
| 2026-04-29 03:22 | 12.24841 | -85.29290 | 36004 ft | 472 kts | 354° |
| 2026-04-29 03:22 | 12.31336 | -85.29937 | 36004 ft | 472 kts | 354° |
| 2026-04-29 03:23 | 12.37875 | -85.30589 | 35999 ft | 472 kts | 354° |
| 2026-04-29 03:23 | 12.44410 | -85.31241 | 36005 ft | 472 kts | 354° |
| 2026-04-29 03:24 | 12.50958 | -85.31894 | 36002 ft | 473 kts | 354° |
| 2026-04-29 03:24 | 12.57511 | -85.32548 | 36002 ft | 472 kts | 354° |
| 2026-04-29 03:25 | 12.64034 | -85.33199 | 36000 ft | 471 kts | 354° |
| 2026-04-29 03:25 | 12.70548 | -85.33850 | 36001 ft | 470 kts | 354° |
| 2026-04-29 03:26 | 12.77067 | -85.34502 | 36004 ft | 470 kts | 354° |
| 2026-04-29 03:26 | 12.83579 | -85.35153 | 36004 ft | 470 kts | 354° |
| 2026-04-29 03:27 | 12.90103 | -85.35806 | 35998 ft | 471 kts | 354° |
| 2026-04-29 03:27 | 12.96627 | -85.36459 | 36003 ft | 471 kts | 354° |
| 2026-04-29 03:28 | 13.03152 | -85.37112 | 35999 ft | 471 kts | 354° |
| 2026-04-29 03:28 | 13.09673 | -85.37766 | 36004 ft | 471 kts | 354° |
| 2026-04-29 03:29 | 13.16170 | -85.38417 | 36002 ft | 471 kts | 354° |
| 2026-04-29 03:29 | 13.22698 | -85.39072 | 36001 ft | 472 kts | 354° |
| 2026-04-29 03:30 | 13.29226 | -85.39728 | 36003 ft | 472 kts | 354° |
| 2026-04-29 03:30 | 13.35763 | -85.40384 | 35999 ft | 472 kts | 354° |
| 2026-04-29 03:31 | 13.45563 | -85.41369 | 36000 ft | 472 kts | 354° |
| 2026-04-29 03:31 | 13.52106 | -85.42027 | 36000 ft | 472 kts | 354° |
| 2026-04-29 03:32 | 13.58645 | -85.42685 | 36001 ft | 472 kts | 354° |
| 2026-04-29 03:32 | 13.65182 | -85.43343 | 36004 ft | 472 kts | 354° |
| 2026-04-29 03:33 | 13.71672 | -85.43997 | 35997 ft | 472 kts | 354° |
| 2026-04-29 03:33 | 13.78206 | -85.44656 | 36005 ft | 472 kts | 354° |
| 2026-04-29 03:34 | 13.84745 | -85.45315 | 36001 ft | 472 kts | 354° |
| 2026-04-29 03:34 | 13.91283 | -85.45975 | 35999 ft | 472 kts | 354° |
| 2026-04-29 03:35 | 13.97815 | -85.46634 | 36002 ft | 472 kts | 354° |
| 2026-04-29 03:35 | 14.04358 | -85.47295 | 36004 ft | 472 kts | 354° |
| 2026-04-29 03:36 | 14.10890 | -85.47956 | 36001 ft | 472 kts | 354° |
| 2026-04-29 03:36 | 14.17430 | -85.48617 | 36000 ft | 472 kts | 354° |
| 2026-04-29 03:37 | 14.23973 | -85.49279 | 35998 ft | 472 kts | 354° |
| 2026-04-29 03:37 | 14.30472 | -85.49937 | 35998 ft | 472 kts | 354° |
| 2026-04-29 03:38 | 14.37004 | -85.50599 | 36001 ft | 472 kts | 354° |
| 2026-04-29 03:38 | 14.43545 | -85.51262 | 36001 ft | 472 kts | 354° |
| 2026-04-29 03:39 | 14.50081 | -85.51925 | 36004 ft | 472 kts | 354° |
| 2026-04-29 03:39 | 14.56617 | -85.52589 | 36001 ft | 472 kts | 354° |
| 2026-04-29 03:40 | 14.63152 | -85.53252 | 36003 ft | 472 kts | 354° |
| 2026-04-29 03:40 | 14.69687 | -85.53916 | 35999 ft | 472 kts | 354° |
| 2026-04-29 03:41 | 14.76226 | -85.54581 | 36001 ft | 472 kts | 354° |
| 2026-04-29 03:41 | 14.82762 | -85.55246 | 36003 ft | 472 kts | 354° |
| 2026-04-29 03:42 | 14.89292 | -85.55911 | 36000 ft | 472 kts | 354° |
| 2026-04-29 03:42 | 14.95835 | -85.56578 | 36000 ft | 472 kts | 354° |
| 2026-04-29 03:43 | 15.02327 | -85.57239 | 35999 ft | 472 kts | 354° |
| 2026-04-29 03:43 | 15.08862 | -85.57906 | 36003 ft | 472 kts | 354° |
| 2026-04-29 03:44 | 15.15396 | -85.58573 | 36000 ft | 472 kts | 354° |
| 2026-04-29 03:44 | 15.21928 | -85.59240 | 36000 ft | 472 kts | 354° |
| 2026-04-29 03:45 | 15.28464 | -85.59907 | 36001 ft | 472 kts | 354° |
| 2026-04-29 03:45 | 15.35000 | -85.60576 | 36003 ft | 472 kts | 354° |
| 2026-04-29 03:46 | 15.41536 | -85.61244 | 36001 ft | 472 kts | 354° |
| 2026-04-29 03:46 | 15.48069 | -85.61913 | 36001 ft | 472 kts | 354° |
| 2026-04-29 03:47 | 15.54605 | -85.62583 | 35998 ft | 472 kts | 354° |
| 2026-04-29 03:47 | 15.61141 | -85.63253 | 36002 ft | 472 kts | 354° |
| 2026-04-29 03:48 | 15.67676 | -85.63923 | 35999 ft | 472 kts | 354° |
| 2026-04-29 03:48 | 15.74208 | -85.64593 | 35999 ft | 472 kts | 354° |
| 2026-04-29 03:49 | 15.80746 | -85.65265 | 36002 ft | 472 kts | 354° |
| 2026-04-29 03:49 | 15.87285 | -85.65937 | 36003 ft | 472 kts | 354° |
| 2026-04-29 03:50 | 15.93814 | -85.66608 | 36001 ft | 472 kts | 354° |
| 2026-04-29 03:50 | 16.00352 | -85.67281 | 36000 ft | 472 kts | 354° |
| 2026-04-29 03:51 | 16.06845 | -85.67950 | 36001 ft | 472 kts | 354° |
| 2026-04-29 03:51 | 16.13375 | -85.68622 | 35999 ft | 472 kts | 354° |
| 2026-04-29 03:52 | 16.19909 | -85.69296 | 36004 ft | 472 kts | 354° |
| 2026-04-29 03:52 | 16.26450 | -85.69971 | 36001 ft | 472 kts | 354° |
| 2026-04-29 03:53 | 16.32984 | -85.70646 | 36002 ft | 472 kts | 354° |
| 2026-04-29 03:53 | 16.39522 | -85.71321 | 36001 ft | 472 kts | 354° |
| 2026-04-29 03:54 | 16.46056 | -85.71997 | 36004 ft | 472 kts | 354° |
| 2026-04-29 03:54 | 16.52587 | -85.72672 | 36000 ft | 472 kts | 354° |
| 2026-04-29 03:55 | 16.59125 | -85.73349 | 36000 ft | 472 kts | 354° |
| 2026-04-29 03:55 | 16.65656 | -85.74026 | 36004 ft | 472 kts | 354° |
| 2026-04-29 03:56 | 16.72194 | -85.74703 | 36002 ft | 472 kts | 354° |
| 2026-04-29 03:56 | 16.78725 | -85.75381 | 36002 ft | 472 kts | 354° |
| 2026-04-29 03:57 | 16.85223 | -85.76055 | 36001 ft | 472 kts | 354° |
| 2026-04-29 03:57 | 16.91754 | -85.76734 | 36000 ft | 472 kts | 354° |
| 2026-04-29 03:58 | 16.97227 | -85.77303 | 35999 ft | 472 kts | 354° |
| 2026-04-29 03:58 | 17.03766 | -85.77983 | 36000 ft | 472 kts | 354° |
| 2026-04-29 03:59 | 17.10300 | -85.78663 | 36001 ft | 472 kts | 354° |
| 2026-04-29 03:59 | 17.16792 | -85.79339 | 36001 ft | 472 kts | 354° |
| 2026-04-29 04:00 | 17.23330 | -85.80021 | 35999 ft | 472 kts | 354° |
| 2026-04-29 04:00 | 17.29864 | -85.80702 | 36001 ft | 472 kts | 354° |
| 2026-04-29 04:01 | 17.36403 | -85.81385 | 36002 ft | 472 kts | 354° |
| 2026-04-29 04:01 | 17.42934 | -85.82067 | 36000 ft | 472 kts | 354° |
| 2026-04-29 04:02 | 17.49479 | -85.82751 | 36000 ft | 472 kts | 354° |
| 2026-04-29 04:02 | 17.56010 | -85.83434 | 36002 ft | 472 kts | 354° |
| 2026-04-29 04:03 | 17.62548 | -85.84119 | 36004 ft | 472 kts | 354° |
| 2026-04-29 04:03 | 17.69086 | -85.84804 | 36001 ft | 472 kts | 354° |
| 2026-04-29 04:04 | 17.75581 | -85.85484 | 36003 ft | 472 kts | 354° |
| 2026-04-29 04:04 | 17.82112 | -85.86170 | 36004 ft | 472 kts | 354° |
| 2026-04-29 04:05 | 17.88653 | -85.86856 | 36001 ft | 472 kts | 354° |
| 2026-04-29 04:05 | 17.95184 | -85.87543 | 36001 ft | 472 kts | 354° |
| 2026-04-29 04:06 | 18.01714 | -85.88229 | 36000 ft | 472 kts | 354° |
| 2026-04-29 04:06 | 18.08252 | -85.88917 | 36001 ft | 472 kts | 354° |
| 2026-04-29 04:07 | 18.14787 | -85.89605 | 36000 ft | 472 kts | 354° |
| 2026-04-29 04:07 | 18.21321 | -85.90294 | 36000 ft | 472 kts | 354° |
| 2026-04-29 04:08 | 18.27848 | -85.90982 | 36000 ft | 472 kts | 354° |
| 2026-04-29 04:08 | 18.34389 | -85.91673 | 36001 ft | 472 kts | 354° |
| 2026-04-29 04:09 | 18.40835 | -85.92353 | 35375 ft | 460 kts | 354° |
| 2026-04-29 04:09 | 18.44028 | -85.92691 | 34584 ft | 463 kts | 354° |
| 2026-04-29 04:09 | 18.47253 | -85.93032 | 33644 ft | 469 kts | 354° |
| 2026-04-29 04:10 | 18.50518 | -85.93377 | 32689 ft | 474 kts | 354° |
| 2026-04-29 04:10 | 18.53811 | -85.93726 | 31746 ft | 477 kts | 354° |
| 2026-04-29 04:10 | 18.57124 | -85.94077 | 30782 ft | 480 kts | 354° |
| 2026-04-29 04:10 | 18.60409 | -85.94424 | 29809 ft | 482 kts | 354° |
| 2026-04-29 04:11 | 18.63749 | -85.94778 | 28783 ft | 483 kts | 354° |
| 2026-04-29 04:11 | 18.67100 | -85.95133 | 27703 ft | 485 kts | 354° |
| 2026-04-29 04:11 | 18.70464 | -85.95490 | 26556 ft | 487 kts | 354° |
| 2026-04-29 04:11 | 18.73843 | -85.95848 | 25361 ft | 489 kts | 354° |
| 2026-04-29 04:12 | 18.77218 | -85.96206 | 24466 ft | 485 kts | 354° |
| 2026-04-29 04:12 | 18.80547 | -85.96559 | 23753 ft | 477 kts | 354° |
| 2026-04-29 04:12 | 18.83819 | -85.96907 | 23021 ft | 469 kts | 354° |
| 2026-04-29 04:12 | 18.87046 | -85.97250 | 22212 ft | 463 kts | 354° |
| 2026-04-29 04:13 | 18.90239 | -85.97589 | 21407 ft | 459 kts | 354° |
| 2026-04-29 04:13 | 18.93399 | -85.97925 | 20627 ft | 454 kts | 354° |
| 2026-04-29 04:13 | 18.96528 | -85.98331 | 20333 ft | 456 kts | 349° |
| 2026-04-29 04:13 | 18.99587 | -85.99200 | 20204 ft | 454 kts | 340° |
| 2026-04-29 04:14 | 19.02453 | -86.00555 | 20070 ft | 451 kts | 330° |
| 2026-04-29 04:14 | 19.05170 | -86.02208 | 20023 ft | 449 kts | 329° |
| 2026-04-29 04:14 | 19.07865 | -86.03883 | 20006 ft | 449 kts | 329° |
| 2026-04-29 04:14 | 19.10561 | -86.05558 | 20002 ft | 450 kts | 329° |
| 2026-04-29 04:15 | 19.13263 | -86.07226 | 19997 ft | 450 kts | 329° |
| 2026-04-29 04:15 | 19.15969 | -86.08883 | 19999 ft | 450 kts | 329° |
| 2026-04-29 04:15 | 19.18676 | -86.10532 | 19998 ft | 449 kts | 329° |
| 2026-04-29 04:15 | 19.21389 | -86.12179 | 19999 ft | 450 kts | 330° |
| 2026-04-29 04:16 | 19.24105 | -86.13827 | 20001 ft | 450 kts | 330° |
| 2026-04-29 04:16 | 19.26816 | -86.15470 | 19999 ft | 450 kts | 330° |
| 2026-04-29 04:16 | 19.29536 | -86.17120 | 20001 ft | 450 kts | 330° |
| 2026-04-29 04:16 | 19.32246 | -86.18766 | 20002 ft | 450 kts | 330° |
| 2026-04-29 04:17 | 19.34957 | -86.20412 | 20002 ft | 450 kts | 330° |
| 2026-04-29 04:17 | 19.37673 | -86.22063 | 19999 ft | 450 kts | 330° |
| 2026-04-29 04:17 | 19.40386 | -86.23713 | 20001 ft | 450 kts | 330° |
| 2026-04-29 04:17 | 19.43101 | -86.25365 | 20001 ft | 450 kts | 330° |
| 2026-04-29 04:18 | 19.45811 | -86.27014 | 20001 ft | 450 kts | 329° |
| 2026-04-29 04:18 | 19.48526 | -86.28668 | 20001 ft | 450 kts | 329° |
| 2026-04-29 04:18 | 19.51212 | -86.30304 | 19986 ft | 437 kts | 329° |
| 2026-04-29 04:18 | 19.53785 | -86.31871 | 19981 ft | 416 kts | 329° |
| 2026-04-29 04:19 | 19.56226 | -86.33359 | 19983 ft | 396 kts | 329° |
| 2026-04-29 04:19 | 19.58565 | -86.34785 | 19980 ft | 379 kts | 329° |
| 2026-04-29 04:19 | 19.60827 | -86.36163 | 19735 ft | 372 kts | 330° |
| 2026-04-29 04:19 | 19.63190 | -86.37238 | 19187 ft | 372 kts | 344° |
| 2026-04-29 04:20 | 19.65668 | -86.37920 | 18648 ft | 372 kts | 344° |
| 2026-04-29 04:20 | 19.68072 | -86.38906 | 18157 ft | 369 kts | 334° |
| 2026-04-29 04:20 | 19.70373 | -86.40091 | 17729 ft | 366 kts | 333° |
| 2026-04-29 04:20 | 19.72644 | -86.41299 | 17275 ft | 363 kts | 333° |
| 2026-04-29 04:21 | 19.74897 | -86.42502 | 16826 ft | 361 kts | 333° |
| 2026-04-29 04:21 | 19.77134 | -86.43689 | 16374 ft | 359 kts | 333° |
| 2026-04-29 04:21 | 19.79365 | -86.44864 | 15919 ft | 356 kts | 333° |
| 2026-04-29 04:21 | 19.81580 | -86.46023 | 15482 ft | 354 kts | 333° |
| 2026-04-29 04:22 | 19.83780 | -86.47171 | 15041 ft | 352 kts | 333° |
| 2026-04-29 04:22 | 19.85975 | -86.48312 | 14601 ft | 349 kts | 333° |
| 2026-04-29 04:22 | 19.88152 | -86.49443 | 14164 ft | 347 kts | 333° |
| 2026-04-29 04:22 | 19.90315 | -86.50565 | 13731 ft | 345 kts | 333° |
| 2026-04-29 04:23 | 19.92461 | -86.51679 | 13300 ft | 343 kts | 333° |
| 2026-04-29 04:23 | 19.94599 | -86.52789 | 12870 ft | 340 kts | 333° |
| 2026-04-29 04:23 | 19.96723 | -86.53891 | 12442 ft | 338 kts | 333° |
| 2026-04-29 04:23 | 19.98830 | -86.54985 | 12018 ft | 336 kts | 333° |
| 2026-04-29 04:24 | 20.00925 | -86.56073 | 11594 ft | 334 kts | 333° |
| 2026-04-29 04:24 | 20.03006 | -86.57154 | 11173 ft | 332 kts | 333° |
| 2026-04-29 04:24 | 20.05075 | -86.58229 | 10754 ft | 330 kts | 333° |
| 2026-04-29 04:24 | 20.07131 | -86.59298 | 10398 ft | 327 kts | 333° |
| 2026-04-29 04:25 | 20.09164 | -86.60355 | 10104 ft | 325 kts | 333° |
| 2026-04-29 04:25 | 20.11197 | -86.61413 | 9803 ft | 325 kts | 333° |
| 2026-04-29 04:25 | 20.13228 | -86.62469 | 9503 ft | 325 kts | 333° |
| 2026-04-29 04:25 | 20.15257 | -86.63525 | 9205 ft | 324 kts | 333° |
| 2026-04-29 04:26 | 20.17284 | -86.64580 | 8906 ft | 324 kts | 333° |
| 2026-04-29 04:26 | 20.19303 | -86.65631 | 8607 ft | 323 kts | 333° |
| 2026-04-29 04:26 | 20.21322 | -86.66683 | 8306 ft | 322 kts | 333° |
| 2026-04-29 04:26 | 20.23336 | -86.67733 | 8006 ft | 321 kts | 333° |
| 2026-04-29 04:27 | 20.25339 | -86.68776 | 7712 ft | 320 kts | 333° |
| 2026-04-29 04:27 | 20.27332 | -86.69815 | 7406 ft | 318 kts | 333° |
| 2026-04-29 04:27 | 20.29317 | -86.70850 | 7105 ft | 317 kts | 333° |
| 2026-04-29 04:27 | 20.31289 | -86.71879 | 6805 ft | 315 kts | 333° |
| 2026-04-29 04:28 | 20.33257 | -86.72906 | 6504 ft | 313 kts | 333° |
| 2026-04-29 04:28 | 20.35203 | -86.73921 | 6299 ft | 308 kts | 333° |
| 2026-04-29 04:28 | 20.37084 | -86.74903 | 6172 ft | 302 kts | 333° |
| 2026-04-29 04:28 | 20.38969 | -86.75887 | 6047 ft | 302 kts | 333° |
| 2026-04-29 04:29 | 20.40868 | -86.76879 | 5930 ft | 306 kts | 333° |
| 2026-04-29 04:29 | 20.42791 | -86.77884 | 5811 ft | 309 kts | 333° |
| 2026-04-29 04:29 | 20.44716 | -86.78890 | 5681 ft | 307 kts | 333° |
| 2026-04-29 04:29 | 20.46635 | -86.79893 | 5555 ft | 306 kts | 333° |
| 2026-04-29 04:30 | 20.48546 | -86.80893 | 5429 ft | 306 kts | 333° |
| 2026-04-29 04:30 | 20.50453 | -86.81890 | 5303 ft | 305 kts | 333° |
| 2026-04-29 04:30 | 20.54254 | -86.83879 | 5054 ft | 304 kts | 333° |
| 2026-04-29 04:31 | 20.56154 | -86.84874 | 4929 ft | 304 kts | 333° |
| 2026-04-29 04:31 | 20.58050 | -86.85867 | 4808 ft | 303 kts | 333° |
| 2026-04-29 04:31 | 20.59941 | -86.86857 | 4679 ft | 303 kts | 333° |
| 2026-04-29 04:31 | 20.61835 | -86.87849 | 4554 ft | 303 kts | 333° |
| 2026-04-29 04:32 | 20.63723 | -86.88839 | 4429 ft | 302 kts | 333° |
| 2026-04-29 04:32 | 20.65613 | -86.89830 | 4305 ft | 302 kts | 333° |
| 2026-04-29 04:32 | 20.67497 | -86.90817 | 4179 ft | 301 kts | 333° |
| 2026-04-29 04:32 | 20.69364 | -86.91797 | 4046 ft | 295 kts | 333° |
| 2026-04-29 04:33 | 20.71172 | -86.92745 | 3908 ft | 284 kts | 333° |
| 2026-04-29 04:33 | 20.72913 | -86.93658 | 3778 ft | 274 kts | 333° |
| 2026-04-29 04:33 | 20.74601 | -86.94544 | 3635 ft | 267 kts | 333° |
| 2026-04-29 04:33 | 20.76259 | -86.95415 | 3515 ft | 264 kts | 333° |
| 2026-04-29 04:34 | 20.77910 | -86.96282 | 3390 ft | 265 kts | 333° |
| 2026-04-29 04:34 | 20.79564 | -86.97152 | 3268 ft | 265 kts | 333° |
| 2026-04-29 04:34 | 20.81217 | -86.98020 | 3145 ft | 265 kts | 333° |
| 2026-04-29 04:34 | 20.82877 | -86.98893 | 3026 ft | 265 kts | 333° |
| 2026-04-29 04:35 | 20.84525 | -86.99759 | 2947 ft | 263 kts | 333° |
| 2026-04-29 04:35 | 20.86163 | -87.00620 | 2931 ft | 261 kts | 333° |
| 2026-04-29 04:35 | 20.87791 | -87.01477 | 2929 ft | 261 kts | 333° |
| 2026-04-29 04:35 | 20.89436 | -87.02343 | 2930 ft | 264 kts | 333° |
| 2026-04-29 04:36 | 20.91084 | -87.03210 | 2932 ft | 264 kts | 333° |
| 2026-04-29 04:36 | 20.92737 | -87.04080 | 2926 ft | 264 kts | 333° |
| 2026-04-29 04:36 | 20.94380 | -87.04945 | 2926 ft | 263 kts | 333° |
| 2026-04-29 04:36 | 20.96005 | -87.05801 | 2926 ft | 263 kts | 333° |
| 2026-04-29 04:37 | 20.97646 | -87.06666 | 2927 ft | 263 kts | 333° |
| 2026-04-29 04:37 | 20.99287 | -87.07531 | 2926 ft | 263 kts | 333° |
| 2026-04-29 04:37 | 21.00925 | -87.08394 | 2928 ft | 263 kts | 333° |
| 2026-04-29 04:37 | 21.02558 | -87.09255 | 2918 ft | 257 kts | 333° |
| 2026-04-29 04:38 | 21.04099 | -87.10067 | 2902 ft | 237 kts | 333° |
| 2026-04-29 04:38 | 21.05518 | -87.10814 | 2900 ft | 218 kts | 333° |
| 2026-04-29 04:38 | 21.06814 | -87.11497 | 2918 ft | 198 kts | 333° |
| 2026-04-29 04:38 | 21.08021 | -87.12075 | 2909 ft | 186 kts | 347° |
| 2026-04-29 04:39 | 21.09271 | -87.11910 | 2946 ft | 184 kts | 26° |
| 2026-04-29 04:39 | 21.10352 | -87.11188 | 2941 ft | 180 kts | 34° |
| 2026-04-29 04:39 | 21.11379 | -87.10447 | 2932 ft | 177 kts | 34° |
| 2026-04-29 04:39 | 21.12421 | -87.09697 | 2941 ft | 183 kts | 34° |
| 2026-04-29 04:40 | 21.13503 | -87.08918 | 2945 ft | 192 kts | 33° |
| 2026-04-29 04:40 | 21.14621 | -87.08115 | 2939 ft | 194 kts | 33° |
| 2026-04-29 04:40 | 21.15690 | -87.07248 | 2913 ft | 193 kts | 50° |
| 2026-04-29 04:40 | 21.16058 | -87.05941 | 2918 ft | 183 kts | 100° |
| 2026-04-29 04:41 | 21.15554 | -87.04752 | 2951 ft | 174 kts | 119° |
| 2026-04-29 04:41 | 21.15007 | -87.03631 | 2932 ft | 170 kts | 119° |
| 2026-04-29 04:41 | 21.14412 | -87.02549 | 2939 ft | 167 kts | 123° |
| 2026-04-29 04:41 | 21.13791 | -87.01514 | 2894 ft | 165 kts | 124° |
| 2026-04-29 04:42 | 21.13153 | -87.00481 | 2718 ft | 167 kts | 124° |
| 2026-04-29 04:42 | 21.12516 | -86.99457 | 2501 ft | 164 kts | 124° |
| 2026-04-29 04:42 | 21.11886 | -86.98446 | 2296 ft | 163 kts | 124° |
| 2026-04-29 04:42 | 21.11257 | -86.97436 | 2073 ft | 163 kts | 124° |
| 2026-04-29 04:43 | 21.10626 | -86.96424 | 1858 ft | 162 kts | 124° |
| 2026-04-29 04:43 | 21.10002 | -86.95423 | 1643 ft | 162 kts | 124° |
| 2026-04-29 04:43 | 21.09580 | -86.94745 | 1498 ft | 161 kts | 124° |
| 2026-04-29 04:43 | 21.08965 | -86.93758 | 1287 ft | 161 kts | 124° |
| 2026-04-29 04:44 | 21.08346 | -86.92765 | 1072 ft | 158 kts | 124° |
| 2026-04-29 04:44 | 21.07748 | -86.91805 | 856 ft | 152 kts | 124° |
| 2026-04-29 04:44 | 21.07161 | -86.90869 | 613 ft | 153 kts | 125° |
| 2026-04-29 04:44 | 21.06576 | -86.89905 | 456 ft | 158 kts | 124° |
| 2026-04-29 04:45 | 21.05963 | -86.88907 | 258 ft | 158 kts | 124° |
| 2026-04-29 04:45 | 21.05370 | -86.87964 | 45 ft | 145 kts | 124° |
| 2026-04-29 04:45 | 21.04858 | -86.87155 | 31 ft | 108 kts | 123° |
| 2026-04-29 04:45 | 21.04555 | -86.86670 | 31 ft | 56 kts | 123° |
| 2026-04-29 04:46 | 21.04430 | -86.86479 | 30 ft | 20 kts | 133° |
| 2026-04-29 04:46 | 21.04320 | -86.86398 | 29 ft | 19 kts | 154° |
| 2026-04-29 04:46 | 21.04204 | -86.86338 | 37 ft | 18 kts | 154° |
| 2026-04-29 04:46 | 21.04094 | -86.86273 | 44 ft | 18 kts | 144° |
| 2026-04-29 04:47 | 21.04040 | -86.86177 | 43 ft | 9 kts | 122° |
| 2026-04-29 04:47 | 21.04032 | -86.86169 | 42 ft | 2 kts | 146° |
| 2026-04-29 04:47 | 21.04011 | -86.86187 | 43 ft | 7 kts | 252° |
| 2026-04-29 04:47 | 21.03972 | -86.86258 | 47 ft | 12 kts | 224° |
| 2026-04-29 04:48 | 21.03874 | -86.86331 | 50 ft | 18 kts | 213° |
| 2026-04-29 04:48 | 21.03763 | -86.86410 | 43 ft | 21 kts | 213° |
| 2026-04-29 04:48 | 21.03624 | -86.86509 | 29 ft | 26 kts | 214° |
| 2026-04-29 04:48 | 21.03564 | -86.86587 | 28 ft | 3 kts | 281° |
| 2026-04-29 04:49 | 21.03572 | -86.86609 | 28 ft | 4 kts | 296° |
| 2026-04-29 04:49 | 21.03583 | -86.86644 | 28 ft | 9 kts | 272° |
| 2026-04-29 04:49 | 21.03525 | -86.86720 | 28 ft | 15 kts | 213° |
| 2026-04-29 04:49 | 21.03447 | -86.86776 | 28 ft | 13 kts | 215° |
| 2026-04-29 04:50 | 21.03408 | -86.86808 | 28 ft | 0 kts | 233° |
| 2026-04-29 04:50 | 21.03399 | -86.86866 | 29 ft | 13 kts | 278° |
| 2026-04-29 04:50 | 21.03422 | -86.86884 | 28 ft | 9 kts | 345° |
| 2026-04-29 04:50 | 21.03482 | -86.86869 | 28 ft | 8 kts | 15° |
| 2026-04-29 04:51 | 21.03522 | -86.86860 | 28 ft | 3 kts | 10° |
| 2026-04-29 04:51 | 21.03531 | -86.86859 | 28 ft | 0 kts | 10° |